sensor_id;sensor_type;location;lat;lon;timestamp;temperature;humidity
4739;DHT22;2383;48.632;10.156;2023-01-05T00:01:05;8.40;99.90
4739;DHT22;2383;48.632;10.156;2023-01-05T00:05:07;8.30;99.90
4739;DHT22;2383;48.632;10.156;2023-01-05T00:09:15;8.00;99.90
4739;DHT22;2383;48.632;10.156;2023-01-05T00:13:17;8.00;99.90
4739;DHT22;2383;48.632;10.156;2023-01-05T00:17:37;8.00;99.90
4739;DHT22;2383;48.632;10.156;2023-01-05T00:21:58;8.20;99.90
4739;DHT22;2383;48.632;10.156;2023-01-05T00:26:18;7.60;99.90
4739;DHT22;2383;48.632;10.156;2023-01-05T00:30:23;7.70;99.90
4739;DHT22;2383;48.632;10.156;2023-01-05T00:34:25;7.90;99.90
4739;DHT22;2383;48.632;10.156;2023-01-05T00:38:27;7.90;99.90
4739;DHT22;2383;48.632;10.156;2023-01-05T00:42:29;7.50;99.90
4739;DHT22;2383;48.632;10.156;2023-01-05T00:46:31;7.70;99.90
4739;DHT22;2383;48.632;10.156;2023-01-05T00:50:32;7.50;99.90
4739;DHT22;2383;48.632;10.156;2023-01-05T00:54:35;7.40;99.90
4739;DHT22;2383;48.632;10.156;2023-01-05T00:58:37;7.00;99.90
4739;DHT22;2383;48.632;10.156;2023-01-05T01:02:39;7.50;99.90
4739;DHT22;2383;48.632;10.156;2023-01-05T01:06:41;7.10;99.90
4739;DHT22;2383;48.632;10.156;2023-01-05T01:10:43;7.70;99.90
4739;DHT22;2383;48.632;10.156;2023-01-05T01:14:48;7.40;99.90
4739;DHT22;2383;48.632;10.156;2023-01-05T01:18:50;7.10;99.90
4739;DHT22;2383;48.632;10.156;2023-01-05T01:22:52;7.50;99.90
4739;DHT22;2383;48.632;10.156;2023-01-05T01:26:54;7.20;99.90
4739;DHT22;2383;48.632;10.156;2023-01-05T01:30:57;7.30;99.90
4739;DHT22;2383;48.632;10.156;2023-01-05T01:34:59;7.70;99.90
4739;DHT22;2383;48.632;10.156;2023-01-05T01:39:01;7.60;99.90
4739;DHT22;2383;48.632;10.156;2023-01-05T01:43:15;7.50;99.90
4739;DHT22;2383;48.632;10.156;2023-01-05T01:47:29;7.00;99.90
4739;DHT22;2383;48.632;10.156;2023-01-05T01:51:36;7.20;99.90
4739;DHT22;2383;48.632;10.156;2023-01-05T01:55:40;6.80;99.90
4739;DHT22;2383;48.632;10.156;2023-01-05T01:59:42;6.70;99.90
4739;DHT22;2383;48.632;10.156;2023-01-05T02:03:44;7.30;99.90
4739;DHT22;2383;48.632;10.156;2023-01-05T02:07:47;7.30;99.90
4739;DHT22;2383;48.632;10.156;2023-01-05T02:12:17;7.30;99.90
4739;DHT22;2383;48.632;10.156;2023-01-05T02:34:24;7.10;99.90
4739;DHT22;2383;48.632;10.156;2023-01-05T02:42:54;7.70;99.90
4739;DHT22;2383;48.632;10.156;2023-01-05T02:47:33;7.60;99.90
4739;DHT22;2383;48.632;10.156;2023-01-05T02:51:40;7.70;99.90
4739;DHT22;2383;48.632;10.156;2023-01-05T02:55:48;7.30;99.90
4739;DHT22;2383;48.632;10.156;2023-01-05T02:59:53;7.50;99.90
4739;DHT22;2383;48.632;10.156;2023-01-05T03:03:59;7.40;99.90
4739;DHT22;2383;48.632;10.156;2023-01-05T03:08:02;7.20;99.90
4739;DHT22;2383;48.632;10.156;2023-01-05T03:12:27;7.80;99.90
4739;DHT22;2383;48.632;10.156;2023-01-05T03:16:50;7.90;99.90
4739;DHT22;2383;48.632;10.156;2023-01-05T03:20:52;7.90;99.90
4739;DHT22;2383;48.632;10.156;2023-01-05T03:24:56;8.10;99.90
4739;DHT22;2383;48.632;10.156;2023-01-05T03:29:17;7.90;99.90
4739;DHT22;2383;48.632;10.156;2023-01-05T03:38:36;8.10;99.90
4739;DHT22;2383;48.632;10.156;2023-01-05T03:42:40;8.10;99.90
4739;DHT22;2383;48.632;10.156;2023-01-05T03:46:43;8.50;99.90
4739;DHT22;2383;48.632;10.156;2023-01-05T03:50:46;8.80;99.90
4739;DHT22;2383;48.632;10.156;2023-01-05T03:54:49;8.70;99.90
4739;DHT22;2383;48.632;10.156;2023-01-05T03:58:51;8.80;99.90
4739;DHT22;2383;48.632;10.156;2023-01-05T04:02:53;8.80;99.90
4739;DHT22;2383;48.632;10.156;2023-01-05T04:06:56;8.30;99.90
4739;DHT22;2383;48.632;10.156;2023-01-05T04:11:16;8.30;99.90
4739;DHT22;2383;48.632;10.156;2023-01-05T04:15:27;8.20;99.90
4739;DHT22;2383;48.632;10.156;2023-01-05T04:19:29;8.00;99.90
4739;DHT22;2383;48.632;10.156;2023-01-05T04:23:32;8.40;99.90
4739;DHT22;2383;48.632;10.156;2023-01-05T04:27:34;8.30;99.90
4739;DHT22;2383;48.632;10.156;2023-01-05T04:31:38;8.10;99.90
4739;DHT22;2383;48.632;10.156;2023-01-05T04:35:41;8.10;99.90
4739;DHT22;2383;48.632;10.156;2023-01-05T04:39:43;8.10;99.90
4739;DHT22;2383;48.632;10.156;2023-01-05T04:43:46;8.00;99.90
4739;DHT22;2383;48.632;10.156;2023-01-05T04:47:50;8.10;99.90
4739;DHT22;2383;48.632;10.156;2023-01-05T04:51:55;8.20;99.90
4739;DHT22;2383;48.632;10.156;2023-01-05T04:55:58;8.00;99.90
4739;DHT22;2383;48.632;10.156;2023-01-05T05:00:05;8.10;99.90
4739;DHT22;2383;48.632;10.156;2023-01-05T05:04:07;8.10;99.90
4739;DHT22;2383;48.632;10.156;2023-01-05T05:08:09;8.00;99.90
4739;DHT22;2383;48.632;10.156;2023-01-05T05:12:11;7.90;99.90
4739;DHT22;2383;48.632;10.156;2023-01-05T05:16:14;8.10;99.90
4739;DHT22;2383;48.632;10.156;2023-01-05T05:20:18;8.30;99.90
4739;DHT22;2383;48.632;10.156;2023-01-05T05:24:20;8.20;99.90
4739;DHT22;2383;48.632;10.156;2023-01-05T05:28:23;8.10;99.90
4739;DHT22;2383;48.632;10.156;2023-01-05T05:32:29;7.90;99.90
4739;DHT22;2383;48.632;10.156;2023-01-05T05:36:31;8.10;99.90
4739;DHT22;2383;48.632;10.156;2023-01-05T05:40:33;8.30;99.90
4739;DHT22;2383;48.632;10.156;2023-01-05T05:44:35;8.40;99.90
4739;DHT22;2383;48.632;10.156;2023-01-05T05:48:36;8.40;99.90
4739;DHT22;2383;48.632;10.156;2023-01-05T05:52:38;8.50;99.90
4739;DHT22;2383;48.632;10.156;2023-01-05T05:56:40;8.40;99.90
4739;DHT22;2383;48.632;10.156;2023-01-05T06:00:42;8.50;99.90
4739;DHT22;2383;48.632;10.156;2023-01-05T06:04:44;8.30;99.90
4739;DHT22;2383;48.632;10.156;2023-01-05T06:08:46;8.40;99.90
4739;DHT22;2383;48.632;10.156;2023-01-05T06:12:47;8.30;99.90
4739;DHT22;2383;48.632;10.156;2023-01-05T06:16:49;8.50;99.90
4739;DHT22;2383;48.632;10.156;2023-01-05T06:20:51;8.50;99.90
4739;DHT22;2383;48.632;10.156;2023-01-05T06:25:02;7.90;99.90
4739;DHT22;2383;48.632;10.156;2023-01-05T06:29:03;8.20;99.90
4739;DHT22;2383;48.632;10.156;2023-01-05T06:33:05;8.40;99.90
4739;DHT22;2383;48.632;10.156;2023-01-05T06:37:07;8.80;99.90
4739;DHT22;2383;48.632;10.156;2023-01-05T06:41:09;8.60;99.90
4739;DHT22;2383;48.632;10.156;2023-01-05T06:45:13;8.80;99.90
4739;DHT22;2383;48.632;10.156;2023-01-05T06:49:15;9.00;99.90
4739;DHT22;2383;48.632;10.156;2023-01-05T06:53:17;8.70;99.90
4739;DHT22;2383;48.632;10.156;2023-01-05T06:57:18;8.00;99.90
4739;DHT22;2383;48.632;10.156;2023-01-05T07:01:20;6.60;99.90
4739;DHT22;2383;48.632;10.156;2023-01-05T07:05:22;5.70;99.90
4739;DHT22;2383;48.632;10.156;2023-01-05T07:09:25;5.50;99.90
4739;DHT22;2383;48.632;10.156;2023-01-05T07:13:27;5.70;99.90
4739;DHT22;2383;48.632;10.156;2023-01-05T07:17:28;5.60;99.90
4739;DHT22;2383;48.632;10.156;2023-01-05T07:21:30;5.60;99.90
4739;DHT22;2383;48.632;10.156;2023-01-05T07:25:32;5.90;99.90
4739;DHT22;2383;48.632;10.156;2023-01-05T07:29:34;5.90;99.90
4739;DHT22;2383;48.632;10.156;2023-01-05T07:33:36;6.10;99.90
4739;DHT22;2383;48.632;10.156;2023-01-05T07:37:41;6.10;99.90
4739;DHT22;2383;48.632;10.156;2023-01-05T07:41:44;5.90;99.90
4739;DHT22;2383;48.632;10.156;2023-01-05T07:45:46;5.70;99.90
4739;DHT22;2383;48.632;10.156;2023-01-05T07:49:48;6.20;99.90
4739;DHT22;2383;48.632;10.156;2023-01-05T07:53:50;5.60;99.90
4739;DHT22;2383;48.632;10.156;2023-01-05T07:57:54;5.50;99.90
4739;DHT22;2383;48.632;10.156;2023-01-05T08:01:55;5.60;99.90
4739;DHT22;2383;48.632;10.156;2023-01-05T08:06:01;5.50;99.90
4739;DHT22;2383;48.632;10.156;2023-01-05T08:10:04;5.50;99.90
4739;DHT22;2383;48.632;10.156;2023-01-05T08:14:24;5.90;99.90
4739;DHT22;2383;48.632;10.156;2023-01-05T08:18:26;5.40;99.90
4739;DHT22;2383;48.632;10.156;2023-01-05T08:22:28;5.50;99.90
4739;DHT22;2383;48.632;10.156;2023-01-05T08:26:30;6.00;99.90
4739;DHT22;2383;48.632;10.156;2023-01-05T08:30:32;5.80;99.90
4739;DHT22;2383;48.632;10.156;2023-01-05T08:34:34;5.70;99.90
4739;DHT22;2383;48.632;10.156;2023-01-05T08:38:36;5.50;99.90
4739;DHT22;2383;48.632;10.156;2023-01-05T08:42:38;5.90;99.90
4739;DHT22;2383;48.632;10.156;2023-01-05T08:46:41;6.30;99.90
4739;DHT22;2383;48.632;10.156;2023-01-05T08:50:43;6.10;99.90
4739;DHT22;2383;48.632;10.156;2023-01-05T08:54:44;6.20;99.90
4739;DHT22;2383;48.632;10.156;2023-01-05T08:58:46;6.90;99.90
4739;DHT22;2383;48.632;10.156;2023-01-05T09:02:48;6.50;99.90
4739;DHT22;2383;48.632;10.156;2023-01-05T09:06:50;6.80;99.90
4739;DHT22;2383;48.632;10.156;2023-01-05T09:10:52;5.80;99.90
4739;DHT22;2383;48.632;10.156;2023-01-05T09:14:54;6.30;99.90
4739;DHT22;2383;48.632;10.156;2023-01-05T09:18:57;6.00;99.90
4739;DHT22;2383;48.632;10.156;2023-01-05T09:22:59;7.00;99.90
4739;DHT22;2383;48.632;10.156;2023-01-05T09:27:00;7.00;99.90
4739;DHT22;2383;48.632;10.156;2023-01-05T09:31:18;6.80;99.90
4739;DHT22;2383;48.632;10.156;2023-01-05T09:35:20;7.10;99.90
4739;DHT22;2383;48.632;10.156;2023-01-05T09:39:23;7.30;99.90
4739;DHT22;2383;48.632;10.156;2023-01-05T09:43:36;7.60;99.90
4739;DHT22;2383;48.632;10.156;2023-01-05T09:47:41;7.00;99.90
4739;DHT22;2383;48.632;10.156;2023-01-05T09:51:44;7.40;99.90
4739;DHT22;2383;48.632;10.156;2023-01-05T09:55:47;7.20;99.90
4739;DHT22;2383;48.632;10.156;2023-01-05T09:59:58;7.10;99.90
4739;DHT22;2383;48.632;10.156;2023-01-05T10:04:09;6.80;99.90
4739;DHT22;2383;48.632;10.156;2023-01-05T10:08:33;6.90;99.90
4739;DHT22;2383;48.632;10.156;2023-01-05T10:12:43;7.20;99.90
4739;DHT22;2383;48.632;10.156;2023-01-05T10:17:13;7.30;99.90
4739;DHT22;2383;48.632;10.156;2023-01-05T10:31:48;7.40;99.90
4739;DHT22;2383;48.632;10.156;2023-01-05T10:36:12;6.60;99.90
4739;DHT22;2383;48.632;10.156;2023-01-05T10:41:03;6.50;99.90
4739;DHT22;2383;48.632;10.156;2023-01-05T10:45:03;6.70;99.90
4739;DHT22;2383;48.632;10.156;2023-01-05T10:49:06;6.30;99.90
4739;DHT22;2383;48.632;10.156;2023-01-05T10:53:16;6.20;99.90
4739;DHT22;2383;48.632;10.156;2023-01-05T11:01:37;6.70;99.90
4739;DHT22;2383;48.632;10.156;2023-01-05T11:05:46;7.40;99.90
4739;DHT22;2383;48.632;10.156;2023-01-05T11:09:48;7.30;99.90
4739;DHT22;2383;48.632;10.156;2023-01-05T11:13:57;7.00;99.90
4739;DHT22;2383;48.632;10.156;2023-01-05T11:17:59;7.00;99.90
4739;DHT22;2383;48.632;10.156;2023-01-05T11:22:02;6.70;99.90
4739;DHT22;2383;48.632;10.156;2023-01-05T11:30:58;6.70;99.90
4739;DHT22;2383;48.632;10.156;2023-01-05T11:35:01;6.60;99.90
4739;DHT22;2383;48.632;10.156;2023-01-05T11:39:03;7.10;99.90
4739;DHT22;2383;48.632;10.156;2023-01-05T11:43:10;7.20;99.90
4739;DHT22;2383;48.632;10.156;2023-01-05T11:47:44;6.60;99.90
4739;DHT22;2383;48.632;10.156;2023-01-05T11:51:47;7.00;99.90
4739;DHT22;2383;48.632;10.156;2023-01-05T11:56:02;6.60;99.90
4739;DHT22;2383;48.632;10.156;2023-01-05T12:00:04;6.70;99.90
4739;DHT22;2383;48.632;10.156;2023-01-05T12:04:54;6.90;99.90
4739;DHT22;2383;48.632;10.156;2023-01-05T12:17:32;6.70;99.90
4739;DHT22;2383;48.632;10.156;2023-01-05T12:21:37;6.50;99.90
4739;DHT22;2383;48.632;10.156;2023-01-05T12:52:34;7.80;99.90
4739;DHT22;2383;48.632;10.156;2023-01-05T12:56:44;8.20;99.90
4739;DHT22;2383;48.632;10.156;2023-01-05T13:00:48;8.30;99.90
4739;DHT22;2383;48.632;10.156;2023-01-05T13:09:23;7.30;99.90
4739;DHT22;2383;48.632;10.156;2023-01-05T13:13:33;7.50;99.90
4739;DHT22;2383;48.632;10.156;2023-01-05T13:17:48;7.80;99.90
4739;DHT22;2383;48.632;10.156;2023-01-05T13:21:52;7.60;99.90
4739;DHT22;2383;48.632;10.156;2023-01-05T13:25:59;7.60;99.90
4739;DHT22;2383;48.632;10.156;2023-01-05T13:30:04;7.40;99.90
4739;DHT22;2383;48.632;10.156;2023-01-05T13:55:48;8.70;99.40
4739;DHT22;2383;48.632;10.156;2023-01-05T13:59:57;8.60;99.60
4739;DHT22;2383;48.632;10.156;2023-01-05T14:08:29;8.10;99.70
4739;DHT22;2383;48.632;10.156;2023-01-05T14:12:47;8.50;99.50
4739;DHT22;2383;48.632;10.156;2023-01-05T14:16:51;8.80;99.10
4739;DHT22;2383;48.632;10.156;2023-01-05T14:20:53;8.50;99.10
4739;DHT22;2383;48.632;10.156;2023-01-05T14:24:58;8.60;99.50
4739;DHT22;2383;48.632;10.156;2023-01-05T14:29:00;8.60;99.50
4739;DHT22;2383;48.632;10.156;2023-01-05T14:33:04;8.50;99.70
4739;DHT22;2383;48.632;10.156;2023-01-05T14:37:22;8.10;99.90
4739;DHT22;2383;48.632;10.156;2023-01-05T14:41:27;7.70;99.90
4739;DHT22;2383;48.632;10.156;2023-01-05T14:45:34;8.10;99.90
4739;DHT22;2383;48.632;10.156;2023-01-05T14:50:01;8.20;99.90
4739;DHT22;2383;48.632;10.156;2023-01-05T14:54:05;8.10;99.90
4739;DHT22;2383;48.632;10.156;2023-01-05T14:58:13;8.40;99.90
4739;DHT22;2383;48.632;10.156;2023-01-05T15:02:24;8.00;99.90
4739;DHT22;2383;48.632;10.156;2023-01-05T15:16:24;7.70;99.90
4739;DHT22;2383;48.632;10.156;2023-01-05T15:38:27;8.80;99.90
4739;DHT22;2383;48.632;10.156;2023-01-05T15:42:41;8.80;99.90
4739;DHT22;2383;48.632;10.156;2023-01-05T15:46:44;8.90;99.90
4739;DHT22;2383;48.632;10.156;2023-01-05T15:50:51;8.40;99.90
4739;DHT22;2383;48.632;10.156;2023-01-05T15:54:59;8.50;99.90
4739;DHT22;2383;48.632;10.156;2023-01-05T15:59:03;8.40;99.90
4739;DHT22;2383;48.632;10.156;2023-01-05T16:03:30;8.40;99.90
4739;DHT22;2383;48.632;10.156;2023-01-05T16:07:32;8.30;99.80
4739;DHT22;2383;48.632;10.156;2023-01-05T16:11:39;8.60;99.60
4739;DHT22;2383;48.632;10.156;2023-01-05T16:15:44;8.40;99.90
4739;DHT22;2383;48.632;10.156;2023-01-05T16:19:53;8.60;99.60
4739;DHT22;2383;48.632;10.156;2023-01-05T16:28:39;9.00;99.50
4739;DHT22;2383;48.632;10.156;2023-01-05T16:32:41;9.10;99.00
4739;DHT22;2383;48.632;10.156;2023-01-05T16:41:19;9.00;98.90
4739;DHT22;2383;48.632;10.156;2023-01-05T16:45:24;8.80;99.00
4739;DHT22;2383;48.632;10.156;2023-01-05T16:49:31;9.10;99.30
4739;DHT22;2383;48.632;10.156;2023-01-05T16:53:40;9.20;99.10
4739;DHT22;2383;48.632;10.156;2023-01-05T16:57:43;9.40;98.50
4739;DHT22;2383;48.632;10.156;2023-01-05T17:01:45;9.40;98.60
4739;DHT22;2383;48.632;10.156;2023-01-05T17:05:51;9.60;98.70
4739;DHT22;2383;48.632;10.156;2023-01-05T17:09:53;9.30;98.90
4739;DHT22;2383;48.632;10.156;2023-01-05T17:13:55;9.00;98.90
4739;DHT22;2383;48.632;10.156;2023-01-05T17:17:57;9.20;98.40
4739;DHT22;2383;48.632;10.156;2023-01-05T17:22:00;9.20;98.60
4739;DHT22;2383;48.632;10.156;2023-01-05T17:26:07;9.30;98.70
4739;DHT22;2383;48.632;10.156;2023-01-05T17:30:19;8.90;99.10
4739;DHT22;2383;48.632;10.156;2023-01-05T17:34:22;9.00;99.10
4739;DHT22;2383;48.632;10.156;2023-01-05T17:38:24;8.80;99.00
4739;DHT22;2383;48.632;10.156;2023-01-05T17:42:26;8.90;99.30
4739;DHT22;2383;48.632;10.156;2023-01-05T17:46:44;8.90;99.40
4739;DHT22;2383;48.632;10.156;2023-01-05T17:50:47;8.80;99.50
4739;DHT22;2383;48.632;10.156;2023-01-05T17:54:52;8.70;99.60
4739;DHT22;2383;48.632;10.156;2023-01-05T17:58:54;7.60;99.90
4739;DHT22;2383;48.632;10.156;2023-01-05T18:02:56;8.20;99.90
4739;DHT22;2383;48.632;10.156;2023-01-05T18:06:58;8.20;99.90
4739;DHT22;2383;48.632;10.156;2023-01-05T18:11:02;8.50;99.90
4739;DHT22;2383;48.632;10.156;2023-01-05T18:15:05;8.50;99.90
4739;DHT22;2383;48.632;10.156;2023-01-05T18:19:07;8.70;99.90
4739;DHT22;2383;48.632;10.156;2023-01-05T18:23:09;8.70;99.90
4739;DHT22;2383;48.632;10.156;2023-01-05T18:27:11;8.70;99.90
4739;DHT22;2383;48.632;10.156;2023-01-05T18:31:14;8.50;99.90
4739;DHT22;2383;48.632;10.156;2023-01-05T18:35:17;8.20;99.90
4739;DHT22;2383;48.632;10.156;2023-01-05T18:39:19;8.30;99.90
4739;DHT22;2383;48.632;10.156;2023-01-05T18:43:20;8.40;99.90
4739;DHT22;2383;48.632;10.156;2023-01-05T18:47:22;8.50;99.90
4739;DHT22;2383;48.632;10.156;2023-01-05T18:51:24;8.50;99.90
4739;DHT22;2383;48.632;10.156;2023-01-05T18:55:26;8.30;99.90
4739;DHT22;2383;48.632;10.156;2023-01-05T18:59:28;8.40;99.90
4739;DHT22;2383;48.632;10.156;2023-01-05T19:03:30;8.50;99.90
4739;DHT22;2383;48.632;10.156;2023-01-05T19:07:32;8.40;99.90
4739;DHT22;2383;48.632;10.156;2023-01-05T19:11:34;8.50;99.90
4739;DHT22;2383;48.632;10.156;2023-01-05T19:15:37;8.50;99.90
4739;DHT22;2383;48.632;10.156;2023-01-05T19:19:39;8.70;99.90
4739;DHT22;2383;48.632;10.156;2023-01-05T19:23:41;8.50;99.90
4739;DHT22;2383;48.632;10.156;2023-01-05T19:27:43;8.60;99.90
4739;DHT22;2383;48.632;10.156;2023-01-05T19:31:48;8.40;99.90
4739;DHT22;2383;48.632;10.156;2023-01-05T19:35:50;8.40;99.90
4739;DHT22;2383;48.632;10.156;2023-01-05T19:39:52;8.40;99.90
4739;DHT22;2383;48.632;10.156;2023-01-05T19:43:54;8.40;99.90
4739;DHT22;2383;48.632;10.156;2023-01-05T19:47:57;8.40;99.90
4739;DHT22;2383;48.632;10.156;2023-01-05T19:51:58;8.50;99.90
4739;DHT22;2383;48.632;10.156;2023-01-05T19:56:05;8.40;99.90
4739;DHT22;2383;48.632;10.156;2023-01-05T20:00:07;8.50;99.90
4739;DHT22;2383;48.632;10.156;2023-01-05T20:04:12;8.50;99.90
4739;DHT22;2383;48.632;10.156;2023-01-05T20:08:14;8.70;99.90
4739;DHT22;2383;48.632;10.156;2023-01-05T20:12:16;8.80;99.90
4739;DHT22;2383;48.632;10.156;2023-01-05T20:16:18;8.50;99.90
4739;DHT22;2383;48.632;10.156;2023-01-05T20:20:20;8.50;99.90
4739;DHT22;2383;48.632;10.156;2023-01-05T20:24:24;8.50;99.90
4739;DHT22;2383;48.632;10.156;2023-01-05T20:28:26;8.30;99.90
4739;DHT22;2383;48.632;10.156;2023-01-05T20:32:28;8.30;99.90
4739;DHT22;2383;48.632;10.156;2023-01-05T20:36:31;8.10;99.90
4739;DHT22;2383;48.632;10.156;2023-01-05T20:40:33;8.00;99.90
4739;DHT22;2383;48.632;10.156;2023-01-05T20:44:38;8.20;99.90
4739;DHT22;2383;48.632;10.156;2023-01-05T20:48:41;8.20;99.90
4739;DHT22;2383;48.632;10.156;2023-01-05T20:52:43;8.10;99.90
4739;DHT22;2383;48.632;10.156;2023-01-05T20:56:45;8.30;99.90
4739;DHT22;2383;48.632;10.156;2023-01-05T21:00:47;8.50;99.90
4739;DHT22;2383;48.632;10.156;2023-01-05T21:05:09;8.10;99.90
4739;DHT22;2383;48.632;10.156;2023-01-05T21:09:12;7.70;99.90
4739;DHT22;2383;48.632;10.156;2023-01-05T21:13:14;7.80;99.90
4739;DHT22;2383;48.632;10.156;2023-01-05T21:17:33;8.10;99.90
4739;DHT22;2383;48.632;10.156;2023-01-05T21:21:35;8.30;99.90
4739;DHT22;2383;48.632;10.156;2023-01-05T21:25:45;8.40;99.90
4739;DHT22;2383;48.632;10.156;2023-01-05T21:30:08;8.30;99.90
4739;DHT22;2383;48.632;10.156;2023-01-05T21:34:10;8.30;99.90
4739;DHT22;2383;48.632;10.156;2023-01-05T21:38:13;8.50;99.90
4739;DHT22;2383;48.632;10.156;2023-01-05T21:42:15;8.20;99.90
4739;DHT22;2383;48.632;10.156;2023-01-05T21:46:37;8.20;99.90
4739;DHT22;2383;48.632;10.156;2023-01-05T21:50:39;8.30;99.90
4739;DHT22;2383;48.632;10.156;2023-01-05T21:54:59;8.40;99.90
4739;DHT22;2383;48.632;10.156;2023-01-05T21:59:19;8.30;99.90
4739;DHT22;2383;48.632;10.156;2023-01-05T22:03:21;8.20;99.90
4739;DHT22;2383;48.632;10.156;2023-01-05T22:07:23;7.70;99.90
4739;DHT22;2383;48.632;10.156;2023-01-05T22:11:25;7.70;99.90
4739;DHT22;2383;48.632;10.156;2023-01-05T22:15:27;7.50;99.90
4739;DHT22;2383;48.632;10.156;2023-01-05T22:19:28;7.50;99.90
4739;DHT22;2383;48.632;10.156;2023-01-05T22:23:31;7.40;99.90
4739;DHT22;2383;48.632;10.156;2023-01-05T22:27:33;7.60;99.90
4739;DHT22;2383;48.632;10.156;2023-01-05T22:31:35;7.40;99.90
4739;DHT22;2383;48.632;10.156;2023-01-05T22:35:38;7.40;99.90
4739;DHT22;2383;48.632;10.156;2023-01-05T22:39:40;7.50;99.90
4739;DHT22;2383;48.632;10.156;2023-01-05T22:43:42;7.50;99.90
4739;DHT22;2383;48.632;10.156;2023-01-05T22:47:44;7.30;99.90
4739;DHT22;2383;48.632;10.156;2023-01-05T22:51:46;7.30;99.90
4739;DHT22;2383;48.632;10.156;2023-01-05T22:55:48;7.30;99.90
4739;DHT22;2383;48.632;10.156;2023-01-05T22:59:49;7.30;99.90
4739;DHT22;2383;48.632;10.156;2023-01-05T23:03:53;7.20;99.90
4739;DHT22;2383;48.632;10.156;2023-01-05T23:07:55;7.20;99.90
4739;DHT22;2383;48.632;10.156;2023-01-05T23:11:57;6.80;99.90
4739;DHT22;2383;48.632;10.156;2023-01-05T23:15:59;6.80;99.90
4739;DHT22;2383;48.632;10.156;2023-01-05T23:20:01;6.70;99.90
4739;DHT22;2383;48.632;10.156;2023-01-05T23:24:03;6.70;99.90
4739;DHT22;2383;48.632;10.156;2023-01-05T23:28:05;6.80;99.90
4739;DHT22;2383;48.632;10.156;2023-01-05T23:32:07;6.80;99.90
4739;DHT22;2383;48.632;10.156;2023-01-05T23:36:10;6.20;99.90
4739;DHT22;2383;48.632;10.156;2023-01-05T23:40:12;6.20;99.90
4739;DHT22;2383;48.632;10.156;2023-01-05T23:44:14;6.20;99.90
4739;DHT22;2383;48.632;10.156;2023-01-05T23:48:16;6.20;99.90
4739;DHT22;2383;48.632;10.156;2023-01-05T23:52:18;6.40;99.90
4739;DHT22;2383;48.632;10.156;2023-01-05T23:56:21;6.40;99.90
